Ajax, Kentucky
Current Conditions -  °F | °C
As of 2:53 PM on Sunday 23 Nov 2014 (Local Time) from KJKL Reporting Station
Light Rain Light Rain  
Wind Chill: 54°   Ceiling: 8500
Heat Index: 54°   Visibility: 8mi
Dew Point: 49°   Wind: 6mph
Humidity: 83%   Direction: NA
Pressure: 29.76"   Gusts: NA
Location:  37.3318°N, 83.1697°W
Report Text: KJKL 231953Z AUTO VRB05KT 8SM -RA FEW060 BKN085 OVC100 12/09 A2976 RMK AO2 SLP073 P0006 T01220094
Loading
Personal Weather Stations






























Interactive Weather Map New forecast layout! Learn more

10-Day Weather Forecast

Advertisements
Track Severe Weather on mobile